Time;durP1;ratioP1;P1;durP2;ratioP2;P2;SDS_P1;SDS_P2;PMS_P1;PMS_P2;Temp;Humidity;BMP_temperature;BMP_pressure;BME280_temperature;BME280_humidity;BME280_pressure;Samples;Min_cycle;Max_cycle;Signal;HPM_P1;HPM_P2
2022/01/31 00:02:06;;;;;;;4.87;1.00;;;;;;;;;;4975657;28;20474;-67
2022/01/31 00:04:32;;;;;;;6.13;1.00;;;;;;;;;;4972361;28;20228;-67
2022/01/31 00:06:59;;;;;;;4.93;0.97;;;;;;;;;;4982813;28;20471;-67
2022/01/31 00:09:26;;;;;;;2.47;0.70;;;;;;;;;;4974454;28;20466;-67
2022/01/31 00:11:57;;;;;;;1.63;0.67;;;;;;;;;;4959265;28;20966;-67
2022/01/31 00:16:56;;;;;;;3.17;0.70;;;;;;;;;;4955684;28;20462;-68
2022/01/31 00:19:23;;;;;;;3.10;0.70;;;;;;;;;;4976094;28;20476;-67
2022/01/31 00:21:50;;;;;;;3.23;0.67;;;;;;;;;;4971653;28;20459;-67
2022/01/31 00:24:16;;;;;;;2.03;0.77;;;;;;;;;;4978887;28;20509;-67
2022/01/31 00:26:43;;;;;;;4.50;1.00;;;;;;;;;;4977589;28;20455;-67
2022/01/31 00:29:09;;;;;;;4.87;0.90;;;;;;;;;;4979046;28;20541;-67
2022/01/31 00:31:36;;;;;;;2.13;0.67;;;;;;;;;;4961000;28;20466;-68
2022/01/31 00:34:03;;;;;;;4.70;0.73;;;;;;;;;;4975062;28;20467;-67
2022/01/31 00:36:29;;;;;;;4.57;1.17;;;;;;;;;;4956037;28;20472;-67
2022/01/31 00:38:56;;;;;;;2.30;0.70;;;;;;;;;;4972330;28;21040;-67
2022/01/31 00:41:23;;;;;;;4.20;1.33;;;;;;;;;;4971967;28;20481;-67
2022/01/31 00:44:01;;;;;;;1.53;0.70;;;;;;;;;;4975035;28;20463;-67
2022/01/31 00:46:37;;;;;;;2.23;0.67;;;;;;;;;;4948691;28;20478;-67
2022/01/31 00:49:04;;;;;;;2.70;0.70;;;;;;;;;;4978382;28;20228;-67
2022/01/31 00:51:31;;;;;;;3.27;0.90;;;;;;;;;;4977995;28;20471;-67
2022/01/31 00:53:57;;;;;;;3.20;0.60;;;;;;;;;;4946401;28;21326;-67
2022/01/31 00:56:24;;;;;;;3.47;0.70;;;;;;;;;;4958649;28;20464;-67
2022/01/31 00:58:52;;;;;;;3.37;0.90;;;;;;;;;;4967261;28;20467;-67
2022/01/31 01:01:19;;;;;;;1.77;0.43;;;;;;;;;;4962335;28;20883;-67
2022/01/31 01:39:39;;;;;;;3.00;0.70;;;;;;;;;;4972230;28;20807;-67
2022/01/31 01:42:06;;;;;;;4.27;0.93;;;;;;;;;;4952957;28;20491;-67
2022/01/31 01:44:43;;;;;;;4.57;1.00;;;;;;;;;;4955390;28;20456;-67
2022/01/31 01:47:13;;;;;;;3.33;0.67;;;;;;;;;;4971651;28;21013;-67
2022/01/31 01:49:40;;;;;;;3.90;0.60;;;;;;;;;;4964175;28;20460;-67
2022/01/31 01:52:07;;;;;;;5.17;1.13;;;;;;;;;;4983807;28;20463;-66
2022/01/31 01:54:34;;;;;;;2.43;0.70;;;;;;;;;;4956781;28;20962;-67
2022/01/31 01:57:03;;;;;;;4.00;0.90;;;;;;;;;;4953944;28;20455;-67
2022/01/31 01:59:33;;;;;;;3.47;0.70;;;;;;;;;;4953913;28;20541;-67
2022/01/31 02:02:19;;;;;;;3.77;0.73;;;;;;;;;;4970614;28;20499;-67
2022/01/31 02:04:45;;;;;;;2.77;0.73;;;;;;;;;;4964544;28;20467;-67
2022/01/31 02:07:27;;;;;;;3.40;0.90;;;;;;;;;;4953953;28;20471;-67
2022/01/31 02:09:55;;;;;;;2.40;0.80;;;;;;;;;;4954685;28;20460;-67
2022/01/31 02:12:24;;;;;;;3.60;0.97;;;;;;;;;;4957546;28;20474;-67
2022/01/31 02:14:51;;;;;;;3.10;1.03;;;;;;;;;;4955437;28;20869;-67
2022/01/31 02:17:44;;;;;;;4.30;1.00;;;;;;;;;;4940073;28;20463;-67
2022/01/31 02:20:17;;;;;;;2.60;0.83;;;;;;;;;;4959741;28;20463;-66
2022/01/31 02:22:46;;;;;;;5.43;1.03;;;;;;;;;;4961207;28;20471;-67
2022/01/31 02:25:29;;;;;;;3.83;1.20;;;;;;;;;;4961719;28;20473;-67
2022/01/31 02:28:28;;;;;;;5.00;1.00;;;;;;;;;;4970364;28;20965;-67
2022/01/31 02:30:55;;;;;;;3.83;0.83;;;;;;;;;;4955258;28;20576;-68
2022/01/31 02:33:22;;;;;;;2.13;0.77;;;;;;;;;;4954146;28;20878;-67
2022/01/31 02:35:49;;;;;;;5.33;1.20;;;;;;;;;;4968963;28;20859;-67
2022/01/31 02:38:16;;;;;;;2.23;0.87;;;;;;;;;;4955065;28;20471;-66
2022/01/31 02:40:50;;;;;;;5.33;1.00;;;;;;;;;;4970809;28;20539;-66
2022/01/31 02:43:20;;;;;;;4.80;0.90;;;;;;;;;;4953741;28;20513;-68
2022/01/31 02:45:47;;;;;;;4.13;0.90;;;;;;;;;;4952403;28;20463;-67
2022/01/31 02:48:16;;;;;;;5.30;0.90;;;;;;;;;;4972701;28;20451;-67
2022/01/31 02:50:43;;;;;;;3.07;1.00;;;;;;;;;;4971973;28;20456;-67
2022/01/31 02:53:12;;;;;;;1.73;0.50;;;;;;;;;;4980696;28;20466;-66
2022/01/31 02:55:41;;;;;;;4.00;0.87;;;;;;;;;;4973709;28;20463;-67
2022/01/31 02:58:07;;;;;;;2.47;0.90;;;;;;;;;;4967128;28;21134;-67
2022/01/31 03:00:35;;;;;;;4.80;1.00;;;;;;;;;;4966004;28;21901;-66
2022/01/31 03:03:22;;;;;;;4.97;0.90;;;;;;;;;;4958904;28;20462;-67
2022/01/31 03:05:49;;;;;;;3.37;0.90;;;;;;;;;;4977931;28;20822;-67
2022/01/31 03:08:16;;;;;;;2.47;0.40;;;;;;;;;;4977697;28;20815;-67
2022/01/31 03:10:43;;;;;;;5.43;1.20;;;;;;;;;;4964945;28;20462;-66
2022/01/31 03:13:11;;;;;;;3.53;1.40;;;;;;;;;;4982375;28;20469;-67
2022/01/31 03:15:46;;;;;;;4.00;1.03;;;;;;;;;;4946360;28;20447;-67
2022/01/31 03:18:51;;;;;;;4.70;1.20;;;;;;;;;;4905687;28;20462;-66
2022/01/31 03:21:18;;;;;;;4.07;1.00;;;;;;;;;;4904939;28;20510;-67
2022/01/31 03:23:49;;;;;;;6.00;1.10;;;;;;;;;;4937851;28;20520;-67
2022/01/31 03:26:16;;;;;;;3.00;0.90;;;;;;;;;;4958133;28;20464;-67
2022/01/31 03:28:43;;;;;;;5.63;1.30;;;;;;;;;;4979992;28;20509;-67
2022/01/31 03:31:10;;;;;;;5.13;1.47;;;;;;;;;;4960681;28;20586;-66
2022/01/31 03:33:38;;;;;;;3.83;0.80;;;;;;;;;;4960439;28;20470;-67
2022/01/31 03:36:04;;;;;;;2.87;0.73;;;;;;;;;;4975852;28;20464;-67
2022/01/31 03:38:31;;;;;;;4.37;1.03;;;;;;;;;;4977600;28;20455;-67
2022/01/31 03:40:58;;;;;;;4.03;0.80;;;;;;;;;;4960507;28;20546;-66
2022/01/31 03:43:24;;;;;;;8.47;1.23;;;;;;;;;;4955518;28;20819;-67
2022/01/31 03:45:51;;;;;;;5.57;1.40;;;;;;;;;;4960301;28;20460;-67
2022/01/31 03:48:21;;;;;;;4.70;1.10;;;;;;;;;;4975250;28;20467;-67
2022/01/31 03:50:49;;;;;;;4.60;1.03;;;;;;;;;;4958783;28;20463;-66
2022/01/31 03:53:16;;;;;;;4.70;1.23;;;;;;;;;;4956336;28;21014;-67
2022/01/31 03:55:43;;;;;;;2.57;1.10;;;;;;;;;;4959284;28;20561;-66
2022/01/31 03:58:10;;;;;;;9.73;1.33;;;;;;;;;;4974099;28;20459;-66
2022/01/31 04:01:06;;;;;;;5.67;1.30;;;;;;;;;;4955475;28;20938;-67
2022/01/31 04:03:34;;;;;;;5.10;1.07;;;;;;;;;;4984766;28;20455;-66
2022/01/31 04:06:01;;;;;;;8.37;1.93;;;;;;;;;;4981645;28;21209;-67
2022/01/31 04:08:27;;;;;;;6.57;1.87;;;;;;;;;;4985152;28;20455;-67
2022/01/31 04:10:54;;;;;;;7.07;2.20;;;;;;;;;;4981517;28;20470;-67
2022/01/31 04:13:20;;;;;;;8.57;2.30;;;;;;;;;;4984565;28;20455;-67
2022/01/31 04:15:47;;;;;;;10.47;2.47;;;;;;;;;;4983114;28;20825;-67
2022/01/31 04:18:14;;;;;;;7.57;2.83;;;;;;;;;;4982919;28;20463;-66
2022/01/31 04:20:40;;;;;;;9.63;2.40;;;;;;;;;;4974010;28;20463;-66
2022/01/31 04:23:11;;;;;;;4.50;2.23;;;;;;;;;;4978345;28;20545;-67
2022/01/31 04:28:33;;;;;;;6.77;2.00;;;;;;;;;;4976277;28;20457;-67
2022/01/31 04:31:12;;;;;;;6.47;1.60;;;;;;;;;;4970640;28;20524;-67
2022/01/31 04:33:38;;;;;;;5.70;1.33;;;;;;;;;;4973707;28;20514;-67
2022/01/31 04:36:06;;;;;;;6.07;1.27;;;;;;;;;;4975850;28;20456;-66
2022/01/31 04:38:33;;;;;;;4.43;1.10;;;;;;;;;;4975397;28;20464;-66
2022/01/31 04:40:59;;;;;;;3.97;1.20;;;;;;;;;;4978277;28;20823;-66
2022/01/31 04:43:27;;;;;;;3.97;1.10;;;;;;;;;;4978772;28;20471;-67
2022/01/31 04:45:56;;;;;;;4.27;1.30;;;;;;;;;;4949827;28;20468;-66
2022/01/31 04:48:22;;;;;;;3.93;1.07;;;;;;;;;;4956133;28;20457;-67
2022/01/31 04:50:49;;;;;;;4.00;1.20;;;;;;;;;;4957760;28;20962;-66
2022/01/31 04:53:16;;;;;;;2.67;1.03;;;;;;;;;;4950286;28;20592;-66
2022/01/31 04:55:42;;;;;;;4.30;0.90;;;;;;;;;;4960294;28;20472;-67
2022/01/31 04:58:09;;;;;;;3.17;0.97;;;;;;;;;;4958835;28;20823;-67
2022/01/31 05:00:36;;;;;;;3.40;1.00;;;;;;;;;;4955159;28;21006;-68
2022/01/31 05:03:08;;;;;;;7.33;1.10;;;;;;;;;;4955135;28;20468;-67
2022/01/31 05:05:35;;;;;;;4.03;1.10;;;;;;;;;;4957310;28;20468;-66
2022/01/31 05:08:02;;;;;;;6.33;1.10;;;;;;;;;;4954465;28;20460;-67
2022/01/31 05:10:28;;;;;;;1.93;0.70;;;;;;;;;;4950149;28;20519;-67
2022/01/31 05:12:56;;;;;;;5.70;1.20;;;;;;;;;;4956122;28;20470;-66
2022/01/31 05:15:22;;;;;;;4.90;1.10;;;;;;;;;;4946242;28;245249;-65
2022/01/31 05:17:49;;;;;;;5.07;1.10;;;;;;;;;;4948635;28;20237;-66
2022/01/31 05:20:15;;;;;;;7.03;1.20;;;;;;;;;;4937895;28;215549;-65
2022/01/31 05:22:42;;;;;;;2.30;0.90;;;;;;;;;;4949036;28;20233;-67
2022/01/31 05:25:09;;;;;;;5.70;1.50;;;;;;;;;;4947639;28;20447;-67
2022/01/31 05:27:35;;;;;;;5.67;1.03;;;;;;;;;;4925599;28;20452;-66
2022/01/31 05:30:03;;;;;;;6.40;1.47;;;;;;;;;;4941802;28;21078;-67
2022/01/31 05:32:29;;;;;;;5.93;1.50;;;;;;;;;;4935084;28;20470;-67
2022/01/31 05:34:56;;;;;;;5.87;1.23;;;;;;;;;;4944040;28;20587;-65
2022/01/31 05:37:22;;;;;;;8.93;1.60;;;;;;;;;;4949445;28;20488;-66
2022/01/31 05:39:49;;;;;;;4.40;1.10;;;;;;;;;;4944731;28;20546;-66
2022/01/31 05:42:16;;;;;;;3.77;1.17;;;;;;;;;;4946807;28;20499;-66
2022/01/31 05:44:46;;;;;;;4.33;1.50;;;;;;;;;;4933667;28;20487;-66
2022/01/31 05:47:16;;;;;;;4.43;1.13;;;;;;;;;;4965609;28;20491;-66
2022/01/31 05:49:43;;;;;;;3.30;1.03;;;;;;;;;;4967388;28;20467;-65
2022/01/31 05:52:09;;;;;;;3.87;0.80;;;;;;;;;;4960751;28;20588;-65
2022/01/31 05:54:36;;;;;;;5.70;1.10;;;;;;;;;;4952276;28;20227;-67
2022/01/31 05:57:03;;;;;;;3.80;0.90;;;;;;;;;;4953883;28;20559;-66
2022/01/31 05:59:30;;;;;;;6.00;1.03;;;;;;;;;;4948530;28;20467;-68
2022/01/31 06:02:01;;;;;;;4.67;1.33;;;;;;;;;;4978510;28;20574;-66
2022/01/31 06:04:28;;;;;;;3.10;1.07;;;;;;;;;;4979225;28;20482;-67
2022/01/31 06:06:54;;;;;;;4.70;1.10;;;;;;;;;;4974616;28;20467;-66
2022/01/31 06:09:21;;;;;;;2.87;1.10;;;;;;;;;;4970983;28;21320;-67
2022/01/31 06:11:49;;;;;;;3.00;0.97;;;;;;;;;;4979302;28;21141;-66
2022/01/31 06:14:16;;;;;;;3.30;1.10;;;;;;;;;;4979694;28;20459;-67
2022/01/31 06:16:42;;;;;;;2.70;1.03;;;;;;;;;;4980325;28;20494;-67
2022/01/31 06:19:09;;;;;;;4.83;1.27;;;;;;;;;;4981156;28;20462;-67
2022/01/31 06:21:36;;;;;;;6.67;1.77;;;;;;;;;;4974547;28;20459;-67
2022/01/31 06:24:08;;;;;;;5.53;1.10;;;;;;;;;;4975170;28;20475;-67
2022/01/31 06:26:35;;;;;;;5.87;1.70;;;;;;;;;;4930571;28;20969;-65
2022/01/31 06:29:20;;;;;;;3.60;1.20;;;;;;;;;;4993833;28;20457;-65
2022/01/31 06:31:53;;;;;;;4.17;1.47;;;;;;;;;;4979684;28;20462;-65
2022/01/31 06:34:19;;;;;;;4.33;1.50;;;;;;;;;;4975929;28;20455;-65
2022/01/31 06:36:46;;;;;;;9.90;1.93;;;;;;;;;;4976962;28;20538;-65
2022/01/31 06:39:13;;;;;;;8.37;2.43;;;;;;;;;;4981855;28;20473;-65
2022/01/31 06:41:39;;;;;;;4.50;1.80;;;;;;;;;;4980080;28;20480;-65
2022/01/31 06:44:06;;;;;;;10.33;2.73;;;;;;;;;;4986189;28;20565;-65
2022/01/31 06:46:33;;;;;;;7.33;2.27;;;;;;;;;;4984030;28;20459;-65
2022/01/31 06:48:59;;;;;;;6.93;1.87;;;;;;;;;;4986344;28;21059;-64
2022/01/31 06:51:26;;;;;;;6.23;2.13;;;;;;;;;;4984894;28;20521;-65
2022/01/31 06:53:55;;;;;;;4.70;1.87;;;;;;;;;;4970348;28;20538;-64
2022/01/31 06:56:29;;;;;;;5.67;2.20;;;;;;;;;;4968502;28;20455;-65
2022/01/31 06:58:56;;;;;;;6.93;3.30;;;;;;;;;;4983797;28;20530;-65
2022/01/31 07:01:25;;;;;;;8.27;2.90;;;;;;;;;;4970668;28;20463;-66
2022/01/31 07:03:54;;;;;;;7.80;2.47;;;;;;;;;;4973460;28;20458;-65
2022/01/31 07:06:24;;;;;;;8.60;2.63;;;;;;;;;;4952694;28;20478;-65
2022/01/31 07:08:52;;;;;;;6.87;3.03;;;;;;;;;;4969090;28;20538;-65
2022/01/31 07:11:24;;;;;;;9.17;3.03;;;;;;;;;;4974479;28;20989;-65
2022/01/31 07:14:01;;;;;;;8.17;3.47;;;;;;;;;;4975332;28;20490;-65
2022/01/31 07:16:28;;;;;;;8.33;3.10;;;;;;;;;;4972421;28;26925;-66
2022/01/31 07:19:03;;;;;;;5.10;2.53;;;;;;;;;;4970211;28;20832;-65
2022/01/31 07:21:36;;;;;;;7.00;2.30;;;;;;;;;;4957138;28;20461;-65
2022/01/31 07:24:20;;;;;;;7.00;2.57;;;;;;;;;;4946487;28;20470;-66
2022/01/31 07:26:47;;;;;;;5.33;2.00;;;;;;;;;;4971638;28;20455;-65
2022/01/31 07:29:14;;;;;;;6.17;2.10;;;;;;;;;;4962349;28;20493;-65
2022/01/31 07:31:40;;;;;;;6.63;2.57;;;;;;;;;;4979185;28;20978;-65
2022/01/31 07:34:08;;;;;;;8.50;2.83;;;;;;;;;;4955349;28;21667;-66
2022/01/31 07:36:35;;;;;;;9.90;3.00;;;;;;;;;;4947704;28;20597;-66
2022/01/31 07:39:04;;;;;;;6.83;3.20;;;;;;;;;;4973902;28;20459;-67
2022/01/31 07:41:32;;;;;;;11.27;3.87;;;;;;;;;;4968429;28;20495;-67
2022/01/31 07:43:59;;;;;;;13.97;4.47;;;;;;;;;;4970489;28;20869;-65
2022/01/31 07:46:26;;;;;;;10.13;3.80;;;;;;;;;;4977625;28;20513;-65
2022/01/31 07:48:54;;;;;;;9.70;3.63;;;;;;;;;;4974681;28;20235;-65
2022/01/31 07:51:21;;;;;;;11.30;2.93;;;;;;;;;;4962620;28;21152;-65
2022/01/31 07:53:48;;;;;;;6.00;2.37;;;;;;;;;;4976539;28;20470;-66
2022/01/31 07:56:17;;;;;;;6.47;2.63;;;;;;;;;;4967191;28;20462;-64
2022/01/31 07:58:44;;;;;;;7.90;2.87;;;;;;;;;;4968352;28;20811;-67
2022/01/31 08:01:10;;;;;;;6.50;2.73;;;;;;;;;;4952089;28;218457;-71
2022/01/31 08:03:37;;;;;;;3.87;2.13;;;;;;;;;;4967770;28;20483;-66
2022/01/31 08:06:04;;;;;;;13.47;2.50;;;;;;;;;;4973727;28;20474;-67
2022/01/31 08:08:32;;;;;;;9.60;2.60;;;;;;;;;;4959628;28;20479;-65
2022/01/31 08:11:00;;;;;;;8.27;2.50;;;;;;;;;;4971870;28;20224;-67
2022/01/31 08:13:27;;;;;;;6.33;2.50;;;;;;;;;;4963390;28;21021;-68
2022/01/31 08:16:09;;;;;;;9.63;4.17;;;;;;;;;;4970911;28;20475;-66
2022/01/31 08:18:38;;;;;;;5.93;2.97;;;;;;;;;;4956080;28;20656;-66
2022/01/31 08:21:06;;;;;;;4.37;2.03;;;;;;;;;;4972508;28;20475;-67
2022/01/31 08:23:34;;;;;;;7.53;3.03;;;;;;;;;;4934869;28;20508;-67
2022/01/31 08:26:01;;;;;;;8.63;4.03;;;;;;;;;;4974802;28;20456;-68
2022/01/31 08:28:35;;;;;;;6.20;3.37;;;;;;;;;;4967034;28;20477;-68
2022/01/31 08:31:06;;;;;;;5.47;2.73;;;;;;;;;;4932133;28;20228;-66
2022/01/31 08:36:01;;;;;;;8.60;2.30;;;;;;;;;;4970141;28;21289;-67
2022/01/31 08:38:29;;;;;;;5.13;2.00;;;;;;;;;;4956604;28;20971;-66
2022/01/31 08:40:57;;;;;;;6.73;2.63;;;;;;;;;;4972197;28;20456;-66
2022/01/31 08:43:24;;;;;;;8.50;2.33;;;;;;;;;;4960952;28;20635;-66
2022/01/31 08:45:53;;;;;;;7.17;2.80;;;;;;;;;;4976012;28;20468;-65
2022/01/31 08:48:20;;;;;;;7.60;2.70;;;;;;;;;;4964321;28;20302;-66
2022/01/31 08:50:47;;;;;;;8.57;2.87;;;;;;;;;;4971090;28;20306;-69
2022/01/31 08:53:14;;;;;;;6.93;2.13;;;;;;;;;;4967076;28;20243;-68
2022/01/31 08:55:44;;;;;;;8.13;2.40;;;;;;;;;;4961765;28;21211;-67
2022/01/31 08:58:11;;;;;;;6.33;1.90;;;;;;;;;;4964927;28;20298;-67
2022/01/31 09:00:38;;;;;;;4.77;1.67;;;;;;;;;;4951933;28;20494;-66
2022/01/31 09:03:21;;;;;;;6.43;2.20;;;;;;;;;;4963181;28;20471;-67
2022/01/31 09:05:48;;;;;;;9.90;4.70;;;;;;;;;;4967795;28;20290;-67
2022/01/31 09:08:18;;;;;;;32.23;14.57;;;;;;;;;;4950702;28;20464;-67
2022/01/31 09:10:45;;;;;;;8.57;3.13;;;;;;;;;;4963131;28;20237;-67
2022/01/31 09:13:14;;;;;;;3.40;2.27;;;;;;;;;;4957654;28;20278;-68
2022/01/31 09:15:41;;;;;;;6.67;2.73;;;;;;;;;;4964413;28;20468;-66
2022/01/31 09:18:08;;;;;;;4.70;2.37;;;;;;;;;;4968633;28;20260;-67
2022/01/31 09:20:36;;;;;;;7.73;2.50;;;;;;;;;;4959598;28;24097;-66
2022/01/31 09:23:04;;;;;;;7.30;2.50;;;;;;;;;;4949488;28;20244;-66
2022/01/31 09:25:31;;;;;;;8.50;2.37;;;;;;;;;;4949123;28;20803;-65
2022/01/31 09:27:59;;;;;;;5.67;2.30;;;;;;;;;;4965796;28;20255;-65
2022/01/31 09:30:27;;;;;;;8.33;2.27;;;;;;;;;;4971953;28;20291;-63
2022/01/31 09:32:55;;;;;;;7.03;2.10;;;;;;;;;;4967257;28;20228;-64
2022/01/31 09:35:22;;;;;;;6.77;2.97;;;;;;;;;;4978657;28;20481;-66
2022/01/31 09:37:49;;;;;;;6.87;2.60;;;;;;;;;;4955530;28;20964;-67
2022/01/31 09:40:19;;;;;;;6.80;2.33;;;;;;;;;;4950497;28;20582;-67
2022/01/31 09:43:03;;;;;;;5.97;1.80;;;;;;;;;;4957090;28;20580;-64
2022/01/31 09:46:18;;;;;;;6.17;2.00;;;;;;;;;;4964779;28;20462;-67
2022/01/31 09:48:38;;;;;;;7.57;3.53;;;;;;;;;;4970094;28;20297;-65
2022/01/31 09:51:08;;;;;;;9.03;3.43;;;;;;;;;;4962157;28;20246;-65
2022/01/31 09:53:47;;;;;;;8.47;5.33;;;;;;;;;;4961541;28;20458;-65
2022/01/31 09:56:20;;;;;;;6.50;3.73;;;;;;;;;;4969675;28;20470;-67
2022/01/31 09:58:48;;;;;;;8.10;4.47;;;;;;;;;;4956772;28;233783;-65
2022/01/31 10:01:16;;;;;;;3.90;1.47;;;;;;;;;;4971846;28;20303;-65
2022/01/31 10:03:51;;;;;;;12.30;5.03;;;;;;;;;;4960104;28;20445;-65
2022/01/31 10:06:27;;;;;;;7.37;3.30;;;;;;;;;;4953648;28;20450;-65
2022/01/31 10:09:06;;;;;;;5.63;1.40;;;;;;;;;;4964466;28;20456;-66
2022/01/31 10:11:49;;;;;;;5.87;2.60;;;;;;;;;;4961737;28;20451;-67
2022/01/31 10:17:02;;;;;;;5.07;1.40;;;;;;;;;;4955666;28;20216;-65
2022/01/31 10:19:48;;;;;;;4.27;1.50;;;;;;;;;;4966810;28;20464;-65
2022/01/31 10:22:15;;;;;;;4.97;1.10;;;;;;;;;;4966412;28;20475;-65
2022/01/31 10:25:02;;;;;;;5.57;1.37;;;;;;;;;;4950477;28;20510;-66
2022/01/31 10:27:32;;;;;;;3.77;1.47;;;;;;;;;;4969729;28;20249;-65
2022/01/31 10:30:09;;;;;;;3.60;1.30;;;;;;;;;;4961858;28;20966;-65
2022/01/31 10:32:37;;;;;;;6.67;2.63;;;;;;;;;;4964986;28;20873;-66
2022/01/31 10:35:05;;;;;;;12.60;5.10;;;;;;;;;;4966630;28;212835;-66
2022/01/31 10:37:35;;;;;;;5.83;1.70;;;;;;;;;;4960314;28;20251;-65
2022/01/31 10:46:05;;;;;;;3.17;1.70;;;;;;;;;;4959260;28;20462;-66
2022/01/31 10:56:52;;;;;;;4.57;1.43;;;;;;;;;;4944969;28;20241;-67
2022/01/31 10:59:19;;;;;;;3.83;1.50;;;;;;;;;;4964679;28;21414;-66
2022/01/31 11:01:46;;;;;;;4.47;1.50;;;;;;;;;;4963541;28;20465;-67
2022/01/31 11:04:31;;;;;;;3.07;1.27;;;;;;;;;;4970891;28;20506;-65
2022/01/31 11:06:58;;;;;;;3.90;1.17;;;;;;;;;;4967928;28;27618;-67
2022/01/31 11:09:28;;;;;;;3.80;1.30;;;;;;;;;;4973984;28;20470;-66
2022/01/31 11:11:55;;;;;;;4.03;1.40;;;;;;;;;;4952695;28;20717;-66
2022/01/31 11:14:22;;;;;;;6.10;1.50;;;;;;;;;;4973928;28;20459;-67
2022/01/31 11:16:52;;;;;;;5.60;1.13;;;;;;;;;;4953688;28;20262;-65
2022/01/31 11:19:28;;;;;;;4.77;2.00;;;;;;;;;;4967384;28;20313;-66
2022/01/31 11:22:01;;;;;;;4.17;1.10;;;;;;;;;;4949230;28;20796;-66
2022/01/31 11:24:31;;;;;;;3.90;1.50;;;;;;;;;;4976241;28;20482;-65
2022/01/31 11:27:18;;;;;;;2.53;1.10;;;;;;;;;;4963699;28;20227;-67
2022/01/31 11:29:46;;;;;;;3.83;1.07;;;;;;;;;;4963562;28;20466;-65
2022/01/31 11:32:13;;;;;;;3.43;1.40;;;;;;;;;;4950527;28;20237;-68
2022/01/31 11:34:44;;;;;;;4.03;1.30;;;;;;;;;;4966955;28;20233;-66
2022/01/31 11:37:11;;;;;;;3.50;1.10;;;;;;;;;;4935128;28;27663;-66
2022/01/31 11:39:39;;;;;;;3.93;1.77;;;;;;;;;;4957840;28;20631;-65
2022/01/31 11:42:06;;;;;;;4.00;1.13;;;;;;;;;;4956415;28;20238;-66
2022/01/31 11:44:33;;;;;;;4.87;1.73;;;;;;;;;;4975334;28;20238;-65
2022/01/31 11:47:02;;;;;;;3.20;1.27;;;;;;;;;;4929946;28;20323;-66
2022/01/31 11:49:47;;;;;;;4.80;1.60;;;;;;;;;;4956854;28;20314;-65
2022/01/31 11:52:14;;;;;;;3.03;1.40;;;;;;;;;;4940426;28;20339;-66
2022/01/31 11:54:51;;;;;;;5.57;1.90;;;;;;;;;;4950432;28;20254;-66
2022/01/31 11:57:21;;;;;;;3.60;1.07;;;;;;;;;;4945847;28;21477;-65
2022/01/31 11:59:51;;;;;;;4.60;1.30;;;;;;;;;;4952462;28;20240;-67
2022/01/31 12:02:18;;;;;;;4.30;1.23;;;;;;;;;;4957224;28;20699;-67
2022/01/31 12:04:48;;;;;;;4.30;1.60;;;;;;;;;;4948297;28;23044;-67
2022/01/31 12:07:41;;;;;;;4.47;1.10;;;;;;;;;;4932733;28;20220;-65
2022/01/31 12:10:17;;;;;;;2.90;0.90;;;;;;;;;;4954633;28;20691;-65
2022/01/31 12:23:49;;;;;;;4.27;1.70;;;;;;;;;;4952310;28;20332;-64
2022/01/31 12:26:28;;;;;;;6.03;1.80;;;;;;;;;;4949986;28;20944;-64
2022/01/31 12:29:08;;;;;;;4.07;1.70;;;;;;;;;;4953318;28;20896;-66
2022/01/31 12:31:38;;;;;;;4.63;1.43;;;;;;;;;;4971486;28;20474;-64
2022/01/31 12:34:17;;;;;;;4.20;1.30;;;;;;;;;;4976758;28;20692;-65
2022/01/31 12:36:44;;;;;;;4.37;1.40;;;;;;;;;;4970155;28;20463;-65
2022/01/31 12:39:38;;;;;;;3.40;1.63;;;;;;;;;;4979961;28;20462;-64
2022/01/31 12:45:13;;;;;;;4.20;1.30;;;;;;;;;;4967505;28;20464;-65
2022/01/31 12:48:00;;;;;;;5.63;1.63;;;;;;;;;;4969161;28;20462;-66
2022/01/31 12:50:27;;;;;;;4.70;1.10;;;;;;;;;;4980545;28;20462;-67
2022/01/31 12:52:54;;;;;;;5.10;1.80;;;;;;;;;;4973512;28;20471;-65
2022/01/31 12:55:22;;;;;;;3.37;1.20;;;;;;;;;;4958904;28;21247;-64
2022/01/31 12:57:49;;;;;;;3.97;1.33;;;;;;;;;;4963110;28;20467;-65
2022/01/31 13:00:40;;;;;;;6.13;1.23;;;;;;;;;;4962964;28;20463;-66
2022/01/31 13:03:31;;;;;;;2.67;0.90;;;;;;;;;;4961904;28;20472;-65
2022/01/31 13:05:58;;;;;;;3.77;0.70;;;;;;;;;;4975666;28;20753;-65
2022/01/31 13:08:25;;;;;;;3.80;0.83;;;;;;;;;;4966129;28;22137;-65
2022/01/31 13:10:52;;;;;;;2.73;1.00;;;;;;;;;;4935332;28;20806;-66
2022/01/31 13:13:35;;;;;;;3.73;1.10;;;;;;;;;;4955649;28;20525;-66
2022/01/31 13:16:05;;;;;;;4.90;0.83;;;;;;;;;;4948451;28;20460;-66
2022/01/31 13:18:33;;;;;;;4.27;1.20;;;;;;;;;;4952423;28;20467;-66
2022/01/31 13:21:03;;;;;;;4.33;0.70;;;;;;;;;;4970098;28;20466;-64
2022/01/31 13:23:31;;;;;;;2.70;1.07;;;;;;;;;;4978431;28;20231;-65
2022/01/31 13:25:59;;;;;;;2.40;0.93;;;;;;;;;;4970741;28;20590;-67
2022/01/31 13:28:26;;;;;;;4.43;1.10;;;;;;;;;;4978608;28;20463;-65
2022/01/31 13:31:02;;;;;;;6.83;1.00;;;;;;;;;;4972124;28;20459;-65
2022/01/31 13:33:30;;;;;;;5.03;1.00;;;;;;;;;;4971365;28;20456;-64
2022/01/31 13:36:01;;;;;;;3.97;1.00;;;;;;;;;;4958125;28;20477;-66
2022/01/31 13:38:28;;;;;;;2.97;1.00;;;;;;;;;;4953078;28;20500;-65
2022/01/31 13:40:58;;;;;;;4.63;1.30;;;;;;;;;;4981168;28;23919;-64
2022/01/31 13:43:33;;;;;;;4.40;1.00;;;;;;;;;;4954676;28;20662;-65
2022/01/31 13:48:49;;;;;;;5.27;2.17;;;;;;;;;;4976023;28;20839;-65
2022/01/31 13:51:30;;;;;;;3.63;1.80;;;;;;;;;;4935537;28;20475;-65
2022/01/31 13:54:08;;;;;;;7.07;1.40;;;;;;;;;;4958568;28;20454;-65
2022/01/31 13:56:36;;;;;;;4.97;1.23;;;;;;;;;;4970809;28;20456;-65
2022/01/31 13:59:07;;;;;;;4.33;1.20;;;;;;;;;;4969847;28;20243;-68
2022/01/31 14:01:34;;;;;;;4.40;1.40;;;;;;;;;;4936387;28;20260;-68
2022/01/31 14:04:01;;;;;;;6.00;1.20;;;;;;;;;;4962602;28;21652;-67
2022/01/31 14:06:49;;;;;;;2.70;1.20;;;;;;;;;;4969330;28;20463;-65
2022/01/31 14:09:16;;;;;;;4.73;1.60;;;;;;;;;;4973979;28;20533;-68
2022/01/31 14:11:43;;;;;;;4.73;1.33;;;;;;;;;;4959878;28;20452;-66
2022/01/31 14:14:10;;;;;;;4.60;1.30;;;;;;;;;;4970517;28;20477;-65
2022/01/31 14:17:03;;;;;;;4.30;1.00;;;;;;;;;;4941809;28;20263;-66
2022/01/31 14:19:30;;;;;;;3.10;1.10;;;;;;;;;;4957058;28;20229;-67
2022/01/31 14:21:57;;;;;;;3.97;1.23;;;;;;;;;;4960221;28;20249;-66
2022/01/31 14:24:27;;;;;;;3.40;1.13;;;;;;;;;;4965756;28;20591;-66
2022/01/31 14:27:02;;;;;;;3.80;1.50;;;;;;;;;;4988994;28;20462;-67
2022/01/31 14:29:29;;;;;;;4.87;1.20;;;;;;;;;;4991086;28;20549;-67
2022/01/31 14:31:57;;;;;;;4.03;1.30;;;;;;;;;;4956705;28;20465;-67
2022/01/31 14:34:37;;;;;;;4.60;1.53;;;;;;;;;;4967549;28;20447;-67
2022/01/31 14:37:05;;;;;;;2.30;1.00;;;;;;;;;;4966744;28;20463;-67
2022/01/31 14:39:44;;;;;;;4.43;1.27;;;;;;;;;;4976227;28;20232;-68
2022/01/31 14:48:50;;;;;;;5.77;2.17;;;;;;;;;;4968462;28;20455;-67
2022/01/31 14:52:12;;;;;;;6.30;2.30;;;;;;;;;;4970096;28;20463;-67
2022/01/31 14:55:20;;;;;;;5.20;2.00;;;;;;;;;;4976020;28;20455;-68
2022/01/31 14:58:13;;;;;;;5.50;2.00;;;;;;;;;;4977890;28;20457;-67
2022/01/31 15:01:12;;;;;;;9.90;3.47;;;;;;;;;;4976198;28;20456;-67
2022/01/31 15:04:41;;;;;;;9.33;4.10;;;;;;;;;;4379892;27;19933317;-67
2022/01/31 15:07:45;;;;;;;24.57;9.07;;;;;;;;;;5070069;27;20223;-67
2022/01/31 15:10:33;;;;;;;12.83;4.90;;;;;;;;;;5083004;27;20529;-67
2022/01/31 15:13:29;;;;;;;21.93;8.20;;;;;;;;;;5081855;27;20496;-66
2022/01/31 15:16:08;;;;;;;11.17;5.47;;;;;;;;;;5083622;27;20941;-66
2022/01/31 15:19:03;;;;;;;35.43;15.27;;;;;;;;;;5077303;27;20453;-67
2022/01/31 15:21:56;;;;;;;21.60;10.87;;;;;;;;;;5061428;28;20466;-67
2022/01/31 15:24:42;;;;;;;16.90;7.67;;;;;;;;;;5076968;28;20659;-67
2022/01/31 15:28:10;;;;;;;11.70;5.67;;;;;;;;;;5057945;28;20545;-67
2022/01/31 15:31:19;;;;;;;6.33;2.93;;;;;;;;;;5092269;28;20987;-67
2022/01/31 15:34:08;;;;;;;18.27;8.17;;;;;;;;;;5098209;28;20901;-67
2022/01/31 15:36:34;;;;;;;19.07;8.80;;;;;;;;;;5097055;28;20967;-66
2022/01/31 15:39:03;;;;;;;9.37;5.50;;;;;;;;;;5098576;28;20486;-67
2022/01/31 15:41:32;;;;;;;12.23;4.90;;;;;;;;;;5097004;28;20445;-66
2022/01/31 15:43:59;;;;;;;11.77;4.37;;;;;;;;;;5095060;28;20461;-67
2022/01/31 15:46:26;;;;;;;9.40;4.47;;;;;;;;;;5080877;28;20472;-66
2022/01/31 15:48:53;;;;;;;8.50;4.90;;;;;;;;;;5097567;28;21020;-67
2022/01/31 15:51:20;;;;;;;7.30;4.80;;;;;;;;;;5097424;28;20457;-66
2022/01/31 15:53:47;;;;;;;10.27;6.07;;;;;;;;;;5097202;28;20453;-66
2022/01/31 15:56:14;;;;;;;7.63;4.50;;;;;;;;;;5097643;28;20472;-66
2022/01/31 15:58:41;;;;;;;10.07;5.00;;;;;;;;;;5099156;28;20464;-66
2022/01/31 16:01:11;;;;;;;10.20;5.93;;;;;;;;;;5097236;28;20446;-67
2022/01/31 16:03:40;;;;;;;6.03;3.40;;;;;;;;;;5096283;28;20470;-67
2022/01/31 16:06:06;;;;;;;8.30;2.70;;;;;;;;;;5098625;28;20458;-66
2022/01/31 16:08:33;;;;;;;8.70;3.60;;;;;;;;;;5096894;28;20450;-66
2022/01/31 16:11:00;;;;;;;18.47;7.47;;;;;;;;;;5082627;28;20453;-66
2022/01/31 16:13:47;;;;;;;51.53;21.60;;;;;;;;;;5080604;28;20457;-66
2022/01/31 16:16:14;;;;;;;14.37;6.40;;;;;;;;;;5079486;28;20817;-66
2022/01/31 16:18:42;;;;;;;14.57;5.00;;;;;;;;;;5084645;28;20553;-66
2022/01/31 16:21:11;;;;;;;12.37;4.67;;;;;;;;;;5086325;27;20434;-66
2022/01/31 16:23:38;;;;;;;9.07;4.17;;;;;;;;;;5088228;27;20481;-66
2022/01/31 16:26:05;;;;;;;12.77;4.93;;;;;;;;;;5085569;27;20465;-66
2022/01/31 16:28:32;;;;;;;11.80;4.83;;;;;;;;;;5087269;27;20454;-66
2022/01/31 16:31:00;;;;;;;10.63;4.53;;;;;;;;;;5084295;27;20473;-66